sensor_id;sensor_type;location;lat;lon;timestamp;P1;durP1;ratioP1;P2;durP2;ratioP2
59145;SDS011;44928;53.074;6.646;2023-02-13T00:00:20;15.15;;;8.43;;
59145;SDS011;44928;53.074;6.646;2023-02-13T00:02:47;16.20;;;9.13;;
59145;SDS011;44928;53.074;6.646;2023-02-13T00:05:13;17.00;;;9.32;;
59145;SDS011;44928;53.074;6.646;2023-02-13T00:07:39;15.55;;;9.60;;
59145;SDS011;44928;53.074;6.646;2023-02-13T00:10:05;16.25;;;10.18;;
59145;SDS011;44928;53.074;6.646;2023-02-13T00:12:32;15.48;;;9.82;;
59145;SDS011;44928;53.074;6.646;2023-02-13T00:14:58;16.42;;;9.75;;
59145;SDS011;44928;53.074;6.646;2023-02-13T00:17:24;15.63;;;8.85;;
59145;SDS011;44928;53.074;6.646;2023-02-13T00:19:50;15.07;;;9.43;;
59145;SDS011;44928;53.074;6.646;2023-02-13T00:22:16;15.88;;;8.90;;
59145;SDS011;44928;53.074;6.646;2023-02-13T00:24:42;17.08;;;9.32;;
59145;SDS011;44928;53.074;6.646;2023-02-13T00:27:08;14.57;;;9.38;;
59145;SDS011;44928;53.074;6.646;2023-02-13T00:29:34;14.23;;;9.40;;
59145;SDS011;44928;53.074;6.646;2023-02-13T00:31:59;14.75;;;8.63;;
59145;SDS011;44928;53.074;6.646;2023-02-13T00:34:26;15.23;;;9.13;;
59145;SDS011;44928;53.074;6.646;2023-02-13T00:36:52;13.93;;;8.32;;
59145;SDS011;44928;53.074;6.646;2023-02-13T00:39:17;14.80;;;9.13;;
59145;SDS011;44928;53.074;6.646;2023-02-13T00:41:43;15.50;;;8.88;;
59145;SDS011;44928;53.074;6.646;2023-02-13T00:44:09;16.42;;;9.32;;
59145;SDS011;44928;53.074;6.646;2023-02-13T00:46:35;14.35;;;8.00;;
59145;SDS011;44928;53.074;6.646;2023-02-13T00:49:02;13.38;;;8.60;;
59145;SDS011;44928;53.074;6.646;2023-02-13T00:51:29;14.63;;;8.82;;
59145;SDS011;44928;53.074;6.646;2023-02-13T00:53:54;17.73;;;10.25;;
59145;SDS011;44928;53.074;6.646;2023-02-13T00:56:20;16.15;;;9.75;;
59145;SDS011;44928;53.074;6.646;2023-02-13T00:58:47;18.17;;;11.35;;
59145;SDS011;44928;53.074;6.646;2023-02-13T01:01:13;20.83;;;12.23;;
59145;SDS011;44928;53.074;6.646;2023-02-13T01:03:39;20.65;;;12.65;;
59145;SDS011;44928;53.074;6.646;2023-02-13T01:06:05;22.00;;;12.68;;
59145;SDS011;44928;53.074;6.646;2023-02-13T01:08:31;23.10;;;13.27;;
59145;SDS011;44928;53.074;6.646;2023-02-13T01:10:58;24.35;;;12.90;;
59145;SDS011;44928;53.074;6.646;2023-02-13T01:13:24;24.48;;;13.98;;
59145;SDS011;44928;53.074;6.646;2023-02-13T01:15:50;23.70;;;13.38;;
59145;SDS011;44928;53.074;6.646;2023-02-13T01:18:17;22.58;;;13.30;;
59145;SDS011;44928;53.074;6.646;2023-02-13T01:20:45;23.35;;;13.40;;
59145;SDS011;44928;53.074;6.646;2023-02-13T01:23:21;22.88;;;13.60;;
59145;SDS011;44928;53.074;6.646;2023-02-13T01:25:47;23.40;;;14.15;;
59145;SDS011;44928;53.074;6.646;2023-02-13T01:28:12;24.75;;;14.15;;
59145;SDS011;44928;53.074;6.646;2023-02-13T01:30:38;23.73;;;13.40;;
59145;SDS011;44928;53.074;6.646;2023-02-13T01:33:04;23.90;;;13.73;;
59145;SDS011;44928;53.074;6.646;2023-02-13T01:35:30;23.48;;;14.18;;
59145;SDS011;44928;53.074;6.646;2023-02-13T01:37:55;24.90;;;13.63;;
59145;SDS011;44928;53.074;6.646;2023-02-13T01:40:21;24.17;;;13.45;;
59145;SDS011;44928;53.074;6.646;2023-02-13T01:42:47;24.40;;;15.10;;
59145;SDS011;44928;53.074;6.646;2023-02-13T01:45:26;23.50;;;13.25;;
59145;SDS011;44928;53.074;6.646;2023-02-13T01:48:04;22.33;;;12.90;;
59145;SDS011;44928;53.074;6.646;2023-02-13T01:51:04;24.02;;;13.38;;
59145;SDS011;44928;53.074;6.646;2023-02-13T01:53:39;22.65;;;12.98;;
59145;SDS011;44928;53.074;6.646;2023-02-13T01:56:32;23.65;;;13.70;;
59145;SDS011;44928;53.074;6.646;2023-02-13T01:59:03;23.75;;;13.95;;
59145;SDS011;44928;53.074;6.646;2023-02-13T02:01:33;23.48;;;13.20;;
59145;SDS011;44928;53.074;6.646;2023-02-13T02:04:02;19.83;;;11.57;;
59145;SDS011;44928;53.074;6.646;2023-02-13T02:06:36;24.23;;;14.02;;
59145;SDS011;44928;53.074;6.646;2023-02-13T02:09:10;23.48;;;13.65;;
59145;SDS011;44928;53.074;6.646;2023-02-13T02:14:18;23.77;;;13.68;;
59145;SDS011;44928;53.074;6.646;2023-02-13T02:16:44;22.85;;;14.02;;
59145;SDS011;44928;53.074;6.646;2023-02-13T02:19:46;25.52;;;13.55;;
59145;SDS011;44928;53.074;6.646;2023-02-13T02:22:15;23.65;;;14.18;;
59145;SDS011;44928;53.074;6.646;2023-02-13T02:28:49;21.23;;;12.27;;
59145;SDS011;44928;53.074;6.646;2023-02-13T02:39:38;23.60;;;12.75;;
59145;SDS011;44928;53.074;6.646;2023-02-13T02:44:50;20.88;;;12.23;;
59145;SDS011;44928;53.074;6.646;2023-02-13T02:47:34;21.20;;;12.02;;
59145;SDS011;44928;53.074;6.646;2023-02-13T02:50:36;20.88;;;11.75;;
59145;SDS011;44928;53.074;6.646;2023-02-13T02:58:07;20.70;;;11.50;;
59145;SDS011;44928;53.074;6.646;2023-02-13T03:01:01;22.25;;;12.52;;
59145;SDS011;44928;53.074;6.646;2023-02-13T03:03:48;21.00;;;11.52;;
59145;SDS011;44928;53.074;6.646;2023-02-13T03:06:37;22.63;;;12.38;;
59145;SDS011;44928;53.074;6.646;2023-02-13T03:09:12;21.75;;;11.85;;
59145;SDS011;44928;53.074;6.646;2023-02-13T03:12:00;20.40;;;11.93;;
59145;SDS011;44928;53.074;6.646;2023-02-13T03:14:46;19.75;;;11.05;;
59145;SDS011;44928;53.074;6.646;2023-02-13T03:17:12;20.38;;;11.60;;
59145;SDS011;44928;53.074;6.646;2023-02-13T03:25:18;22.15;;;12.60;;
59145;SDS011;44928;53.074;6.646;2023-02-13T03:41:29;28.77;;;13.95;;
59145;SDS011;44928;53.074;6.646;2023-02-13T03:44:08;27.17;;;13.48;;
59145;SDS011;44928;53.074;6.646;2023-02-13T03:46:40;26.02;;;14.02;;
59145;SDS011;44928;53.074;6.646;2023-02-13T03:49:11;25.50;;;14.35;;
59145;SDS011;44928;53.074;6.646;2023-02-13T03:52:06;26.98;;;14.15;;
59145;SDS011;44928;53.074;6.646;2023-02-13T03:57:26;25.58;;;14.50;;
59145;SDS011;44928;53.074;6.646;2023-02-13T04:00:15;26.88;;;14.25;;
59145;SDS011;44928;53.074;6.646;2023-02-13T04:02:47;28.80;;;15.05;;
59145;SDS011;44928;53.074;6.646;2023-02-13T04:05:36;26.60;;;15.20;;
59145;SDS011;44928;53.074;6.646;2023-02-13T04:08:06;27.73;;;14.75;;
59145;SDS011;44928;53.074;6.646;2023-02-13T04:10:32;28.15;;;15.10;;
59145;SDS011;44928;53.074;6.646;2023-02-13T04:15:42;25.80;;;14.48;;
59145;SDS011;44928;53.074;6.646;2023-02-13T04:18:37;29.13;;;14.55;;
59145;SDS011;44928;53.074;6.646;2023-02-13T04:21:03;23.08;;;12.27;;
59145;SDS011;44928;53.074;6.646;2023-02-13T04:23:31;21.92;;;13.15;;
59145;SDS011;44928;53.074;6.646;2023-02-13T04:25:59;25.27;;;13.38;;
59145;SDS011;44928;53.074;6.646;2023-02-13T04:28:27;24.83;;;12.32;;
59145;SDS011;44928;53.074;6.646;2023-02-13T04:30:54;21.70;;;13.32;;
59145;SDS011;44928;53.074;6.646;2023-02-13T04:33:20;26.05;;;12.88;;
59145;SDS011;44928;53.074;6.646;2023-02-13T04:35:45;24.80;;;13.35;;
59145;SDS011;44928;53.074;6.646;2023-02-13T04:38:11;24.75;;;13.05;;
59145;SDS011;44928;53.074;6.646;2023-02-13T04:40:37;24.52;;;12.75;;
59145;SDS011;44928;53.074;6.646;2023-02-13T04:43:03;22.63;;;13.35;;
59145;SDS011;44928;53.074;6.646;2023-02-13T04:45:28;21.98;;;12.63;;
59145;SDS011;44928;53.074;6.646;2023-02-13T04:47:55;21.42;;;11.65;;
59145;SDS011;44928;53.074;6.646;2023-02-13T04:50:23;26.60;;;12.77;;
59145;SDS011;44928;53.074;6.646;2023-02-13T04:52:51;21.25;;;11.57;;
59145;SDS011;44928;53.074;6.646;2023-02-13T04:55:19;23.90;;;12.55;;
59145;SDS011;44928;53.074;6.646;2023-02-13T04:57:46;24.63;;;13.50;;
59145;SDS011;44928;53.074;6.646;2023-02-13T05:00:12;22.13;;;11.75;;
59145;SDS011;44928;53.074;6.646;2023-02-13T05:02:38;24.35;;;12.73;;
59145;SDS011;44928;53.074;6.646;2023-02-13T05:05:04;22.52;;;12.98;;
59145;SDS011;44928;53.074;6.646;2023-02-13T05:07:30;21.63;;;11.50;;
59145;SDS011;44928;53.074;6.646;2023-02-13T05:09:56;22.73;;;12.85;;
59145;SDS011;44928;53.074;6.646;2023-02-13T05:12:22;22.30;;;12.45;;
59145;SDS011;44928;53.074;6.646;2023-02-13T05:14:47;22.73;;;12.50;;
59145;SDS011;44928;53.074;6.646;2023-02-13T05:17:13;20.58;;;11.65;;
59145;SDS011;44928;53.074;6.646;2023-02-13T05:19:39;23.65;;;12.77;;
59145;SDS011;44928;53.074;6.646;2023-02-13T05:22:05;21.52;;;11.50;;
59145;SDS011;44928;53.074;6.646;2023-02-13T05:24:49;23.30;;;13.05;;
59145;SDS011;44928;53.074;6.646;2023-02-13T05:27:15;25.38;;;11.85;;
59145;SDS011;44928;53.074;6.646;2023-02-13T05:29:40;21.95;;;12.07;;
59145;SDS011;44928;53.074;6.646;2023-02-13T05:32:06;21.50;;;11.77;;
59145;SDS011;44928;53.074;6.646;2023-02-13T05:34:32;20.55;;;11.70;;
59145;SDS011;44928;53.074;6.646;2023-02-13T05:36:58;19.92;;;11.45;;
59145;SDS011;44928;53.074;6.646;2023-02-13T05:39:24;21.48;;;11.30;;
59145;SDS011;44928;53.074;6.646;2023-02-13T05:41:50;21.65;;;11.10;;
59145;SDS011;44928;53.074;6.646;2023-02-13T05:44:16;21.02;;;11.60;;
59145;SDS011;44928;53.074;6.646;2023-02-13T05:46:42;23.65;;;11.98;;
59145;SDS011;44928;53.074;6.646;2023-02-13T05:49:09;21.63;;;12.43;;
59145;SDS011;44928;53.074;6.646;2023-02-13T05:51:35;22.77;;;12.50;;
59145;SDS011;44928;53.074;6.646;2023-02-13T05:54:01;23.00;;;12.27;;
59145;SDS011;44928;53.074;6.646;2023-02-13T05:56:27;20.50;;;12.30;;
59145;SDS011;44928;53.074;6.646;2023-02-13T05:58:53;21.67;;;11.65;;
59145;SDS011;44928;53.074;6.646;2023-02-13T06:01:21;23.80;;;11.82;;
59145;SDS011;44928;53.074;6.646;2023-02-13T06:03:48;22.52;;;11.75;;
59145;SDS011;44928;53.074;6.646;2023-02-13T06:06:14;20.42;;;11.13;;
59145;SDS011;44928;53.074;6.646;2023-02-13T06:08:40;22.02;;;12.30;;
59145;SDS011;44928;53.074;6.646;2023-02-13T06:11:06;21.52;;;11.60;;
59145;SDS011;44928;53.074;6.646;2023-02-13T06:13:33;20.90;;;10.98;;
59145;SDS011;44928;53.074;6.646;2023-02-13T06:15:58;20.00;;;10.80;;
59145;SDS011;44928;53.074;6.646;2023-02-13T06:18:24;21.35;;;11.60;;
59145;SDS011;44928;53.074;6.646;2023-02-13T06:20:50;19.65;;;11.00;;
59145;SDS011;44928;53.074;6.646;2023-02-13T06:23:16;19.65;;;10.73;;
59145;SDS011;44928;53.074;6.646;2023-02-13T06:25:42;20.95;;;10.93;;
59145;SDS011;44928;53.074;6.646;2023-02-13T06:28:08;22.90;;;12.15;;
59145;SDS011;44928;53.074;6.646;2023-02-13T06:30:34;21.58;;;11.05;;
59145;SDS011;44928;53.074;6.646;2023-02-13T06:32:59;22.00;;;11.38;;
59145;SDS011;44928;53.074;6.646;2023-02-13T06:35:25;18.52;;;10.55;;
59145;SDS011;44928;53.074;6.646;2023-02-13T06:37:51;20.00;;;10.85;;
59145;SDS011;44928;53.074;6.646;2023-02-13T06:40:17;21.25;;;11.20;;
59145;SDS011;44928;53.074;6.646;2023-02-13T06:42:43;20.90;;;11.00;;
59145;SDS011;44928;53.074;6.646;2023-02-13T06:45:10;19.45;;;10.30;;
59145;SDS011;44928;53.074;6.646;2023-02-13T06:47:41;22.67;;;10.68;;
59145;SDS011;44928;53.074;6.646;2023-02-13T06:50:08;21.27;;;11.13;;
59145;SDS011;44928;53.074;6.646;2023-02-13T06:52:34;19.48;;;11.13;;
59145;SDS011;44928;53.074;6.646;2023-02-13T06:55:00;25.25;;;12.02;;
59145;SDS011;44928;53.074;6.646;2023-02-13T06:57:26;23.77;;;11.85;;
59145;SDS011;44928;53.074;6.646;2023-02-13T06:59:54;23.08;;;12.50;;
59145;SDS011;44928;53.074;6.646;2023-02-13T07:02:19;23.08;;;11.93;;
59145;SDS011;44928;53.074;6.646;2023-02-13T07:04:45;21.70;;;11.40;;
59145;SDS011;44928;53.074;6.646;2023-02-13T07:07:11;22.02;;;13.20;;
59145;SDS011;44928;53.074;6.646;2023-02-13T07:09:37;19.67;;;11.90;;
59145;SDS011;44928;53.074;6.646;2023-02-13T07:12:03;19.08;;;10.65;;
59145;SDS011;44928;53.074;6.646;2023-02-13T07:14:30;20.52;;;10.45;;
59145;SDS011;44928;53.074;6.646;2023-02-13T07:16:58;19.30;;;10.55;;
59145;SDS011;44928;53.074;6.646;2023-02-13T07:19:24;19.73;;;10.50;;
59145;SDS011;44928;53.074;6.646;2023-02-13T07:21:50;20.60;;;11.27;;
59145;SDS011;44928;53.074;6.646;2023-02-13T07:24:15;19.80;;;10.43;;
59145;SDS011;44928;53.074;6.646;2023-02-13T07:26:41;20.55;;;10.55;;
59145;SDS011;44928;53.074;6.646;2023-02-13T07:29:07;19.27;;;10.27;;
59145;SDS011;44928;53.074;6.646;2023-02-13T07:31:33;21.20;;;11.73;;
59145;SDS011;44928;53.074;6.646;2023-02-13T07:33:59;19.60;;;10.70;;
59145;SDS011;44928;53.074;6.646;2023-02-13T07:36:26;20.02;;;10.27;;
59145;SDS011;44928;53.074;6.646;2023-02-13T07:38:52;19.58;;;10.50;;
59145;SDS011;44928;53.074;6.646;2023-02-13T07:41:18;20.83;;;12.45;;
59145;SDS011;44928;53.074;6.646;2023-02-13T07:43:45;23.15;;;13.68;;
59145;SDS011;44928;53.074;6.646;2023-02-13T07:46:10;25.50;;;14.32;;
59145;SDS011;44928;53.074;6.646;2023-02-13T07:48:36;23.70;;;13.38;;
59145;SDS011;44928;53.074;6.646;2023-02-13T07:51:02;22.75;;;12.70;;
59145;SDS011;44928;53.074;6.646;2023-02-13T07:53:29;22.60;;;12.85;;
59145;SDS011;44928;53.074;6.646;2023-02-13T07:55:56;22.40;;;12.25;;
59145;SDS011;44928;53.074;6.646;2023-02-13T07:58:21;22.60;;;13.15;;
59145;SDS011;44928;53.074;6.646;2023-02-13T08:00:47;20.25;;;12.63;;
59145;SDS011;44928;53.074;6.646;2023-02-13T08:03:13;21.77;;;12.43;;
59145;SDS011;44928;53.074;6.646;2023-02-13T08:05:39;21.25;;;12.25;;
59145;SDS011;44928;53.074;6.646;2023-02-13T08:08:05;19.98;;;11.45;;
59145;SDS011;44928;53.074;6.646;2023-02-13T08:10:31;20.15;;;12.32;;
59145;SDS011;44928;53.074;6.646;2023-02-13T08:13:16;19.52;;;12.90;;
59145;SDS011;44928;53.074;6.646;2023-02-13T08:15:42;20.33;;;12.70;;
59145;SDS011;44928;53.074;6.646;2023-02-13T08:18:11;21.98;;;13.13;;
59145;SDS011;44928;53.074;6.646;2023-02-13T08:20:37;20.10;;;12.73;;
59145;SDS011;44928;53.074;6.646;2023-02-13T08:23:03;21.15;;;12.88;;
59145;SDS011;44928;53.074;6.646;2023-02-13T08:25:30;21.92;;;13.55;;
59145;SDS011;44928;53.074;6.646;2023-02-13T08:27:57;20.75;;;13.07;;
59145;SDS011;44928;53.074;6.646;2023-02-13T08:30:24;22.30;;;13.80;;
59145;SDS011;44928;53.074;6.646;2023-02-13T08:32:50;23.58;;;14.55;;
59145;SDS011;44928;53.074;6.646;2023-02-13T08:35:16;21.63;;;13.20;;
59145;SDS011;44928;53.074;6.646;2023-02-13T08:37:41;22.75;;;13.32;;
59145;SDS011;44928;53.074;6.646;2023-02-13T08:40:07;23.52;;;14.38;;
59145;SDS011;44928;53.074;6.646;2023-02-13T08:42:36;22.35;;;14.65;;
59145;SDS011;44928;53.074;6.646;2023-02-13T08:45:02;25.73;;;14.70;;
59145;SDS011;44928;53.074;6.646;2023-02-13T08:47:29;22.58;;;14.00;;
59145;SDS011;44928;53.074;6.646;2023-02-13T08:49:55;26.90;;;16.13;;
59145;SDS011;44928;53.074;6.646;2023-02-13T08:52:21;23.98;;;14.38;;
59145;SDS011;44928;53.074;6.646;2023-02-13T08:54:47;26.48;;;14.13;;
59145;SDS011;44928;53.074;6.646;2023-02-13T08:57:13;23.60;;;14.98;;
59145;SDS011;44928;53.074;6.646;2023-02-13T08:59:39;24.13;;;14.55;;
59145;SDS011;44928;53.074;6.646;2023-02-13T09:02:05;23.17;;;14.48;;
59145;SDS011;44928;53.074;6.646;2023-02-13T09:04:31;25.05;;;14.50;;
59145;SDS011;44928;53.074;6.646;2023-02-13T09:06:57;24.83;;;15.90;;
59145;SDS011;44928;53.074;6.646;2023-02-13T09:09:23;24.38;;;15.38;;
59145;SDS011;44928;53.074;6.646;2023-02-13T09:11:48;25.33;;;14.38;;
59145;SDS011;44928;53.074;6.646;2023-02-13T09:14:15;24.88;;;15.48;;
59145;SDS011;44928;53.074;6.646;2023-02-13T09:16:41;23.65;;;14.00;;
59145;SDS011;44928;53.074;6.646;2023-02-13T09:19:07;24.73;;;15.30;;
59145;SDS011;44928;53.074;6.646;2023-02-13T09:21:33;24.17;;;14.85;;
59145;SDS011;44928;53.074;6.646;2023-02-13T09:23:58;24.08;;;15.32;;
59145;SDS011;44928;53.074;6.646;2023-02-13T09:26:24;25.33;;;15.90;;
59145;SDS011;44928;53.074;6.646;2023-02-13T09:28:50;26.67;;;16.52;;
59145;SDS011;44928;53.074;6.646;2023-02-13T09:31:17;27.40;;;16.00;;
59145;SDS011;44928;53.074;6.646;2023-02-13T09:33:45;28.08;;;16.52;;
59145;SDS011;44928;53.074;6.646;2023-02-13T09:36:13;26.33;;;15.98;;
59145;SDS011;44928;53.074;6.646;2023-02-13T09:38:43;24.98;;;15.73;;
59145;SDS011;44928;53.074;6.646;2023-02-13T09:41:11;27.08;;;15.63;;
59145;SDS011;44928;53.074;6.646;2023-02-13T09:46:35;24.80;;;15.60;;
59145;SDS011;44928;53.074;6.646;2023-02-13T09:49:12;26.75;;;16.23;;
59145;SDS011;44928;53.074;6.646;2023-02-13T09:51:43;25.73;;;16.88;;
59145;SDS011;44928;53.074;6.646;2023-02-13T09:54:15;24.33;;;15.68;;
59145;SDS011;44928;53.074;6.646;2023-02-13T09:56:54;24.95;;;14.77;;
59145;SDS011;44928;53.074;6.646;2023-02-13T10:11:17;28.00;;;15.30;;
59145;SDS011;44928;53.074;6.646;2023-02-13T10:16:29;24.75;;;15.80;;
59145;SDS011;44928;53.074;6.646;2023-02-13T10:20:06;23.98;;;15.02;;
59145;SDS011;44928;53.074;6.646;2023-02-13T10:22:16;26.95;;;15.07;;
59145;SDS011;44928;53.074;6.646;2023-02-13T10:27:46;25.67;;;15.57;;
59145;SDS011;44928;53.074;6.646;2023-02-13T10:30:20;24.98;;;15.02;;
59145;SDS011;44928;53.074;6.646;2023-02-13T10:38:17;21.67;;;14.32;;
59145;SDS011;44928;53.074;6.646;2023-02-13T10:40:48;21.33;;;14.13;;
59145;SDS011;44928;53.074;6.646;2023-02-13T10:52:10;24.10;;;15.43;;
59145;SDS011;44928;53.074;6.646;2023-02-13T10:58:01;23.45;;;15.27;;
59145;SDS011;44928;53.074;6.646;2023-02-13T11:03:23;26.20;;;16.25;;
59145;SDS011;44928;53.074;6.646;2023-02-13T11:05:51;24.42;;;16.33;;
59145;SDS011;44928;53.074;6.646;2023-02-13T11:10:52;27.05;;;16.58;;
59145;SDS011;44928;53.074;6.646;2023-02-13T11:13:21;25.08;;;16.75;;
59145;SDS011;44928;53.074;6.646;2023-02-13T11:18:47;24.80;;;15.73;;
59145;SDS011;44928;53.074;6.646;2023-02-13T11:23:50;25.13;;;16.13;;
59145;SDS011;44928;53.074;6.646;2023-02-13T11:29:05;26.05;;;15.65;;
59145;SDS011;44928;53.074;6.646;2023-02-13T11:31:41;24.00;;;14.75;;
59145;SDS011;44928;53.074;6.646;2023-02-13T11:34:21;25.05;;;16.52;;
59145;SDS011;44928;53.074;6.646;2023-02-13T11:36:53;25.90;;;14.95;;
59145;SDS011;44928;53.074;6.646;2023-02-13T11:39:38;24.50;;;15.23;;
59145;SDS011;44928;53.074;6.646;2023-02-13T11:44:57;23.38;;;14.88;;
59145;SDS011;44928;53.074;6.646;2023-02-13T11:47:32;23.52;;;14.35;;
59145;SDS011;44928;53.074;6.646;2023-02-13T11:50:05;23.13;;;14.63;;
59145;SDS011;44928;53.074;6.646;2023-02-13T11:53:26;24.67;;;15.30;;
59145;SDS011;44928;53.074;6.646;2023-02-13T11:58:35;25.20;;;14.82;;
59145;SDS011;44928;53.074;6.646;2023-02-13T12:03:59;24.38;;;15.35;;
59145;SDS011;44928;53.074;6.646;2023-02-13T12:06:29;21.77;;;14.75;;
59145;SDS011;44928;53.074;6.646;2023-02-13T12:09:13;25.50;;;15.35;;
59145;SDS011;44928;53.074;6.646;2023-02-13T12:11:47;23.00;;;15.13;;
59145;SDS011;44928;53.074;6.646;2023-02-13T12:14:25;21.67;;;14.48;;
59145;SDS011;44928;53.074;6.646;2023-02-13T12:17:05;24.88;;;15.65;;
59145;SDS011;44928;53.074;6.646;2023-02-13T12:19:37;22.65;;;14.55;;
59145;SDS011;44928;53.074;6.646;2023-02-13T12:27:46;22.95;;;14.20;;
59145;SDS011;44928;53.074;6.646;2023-02-13T12:33:41;23.20;;;13.75;;
59145;SDS011;44928;53.074;6.646;2023-02-13T12:36:17;25.08;;;15.18;;
59145;SDS011;44928;53.074;6.646;2023-02-13T12:38:52;24.67;;;16.13;;
59145;SDS011;44928;53.074;6.646;2023-02-13T12:41:41;23.73;;;15.45;;
59145;SDS011;44928;53.074;6.646;2023-02-13T12:44:14;23.67;;;14.60;;
59145;SDS011;44928;53.074;6.646;2023-02-13T12:49:40;22.45;;;14.70;;
59145;SDS011;44928;53.074;6.646;2023-02-13T12:58:30;23.45;;;15.10;;
59145;SDS011;44928;53.074;6.646;2023-02-13T13:15:03;22.88;;;14.60;;
59145;SDS011;44928;53.074;6.646;2023-02-13T13:23:42;23.35;;;15.77;;
59145;SDS011;44928;53.074;6.646;2023-02-13T13:28:51;24.63;;;15.60;;
59145;SDS011;44928;53.074;6.646;2023-02-13T13:31:20;23.85;;;15.20;;
59145;SDS011;44928;53.074;6.646;2023-02-13T13:33:50;27.77;;;16.08;;
59145;SDS011;44928;53.074;6.646;2023-02-13T13:39:13;22.83;;;15.18;;
59145;SDS011;44928;53.074;6.646;2023-02-13T13:47:18;23.13;;;15.73;;
59145;SDS011;44928;53.074;6.646;2023-02-13T13:49:58;23.02;;;15.77;;
59145;SDS011;44928;53.074;6.646;2023-02-13T13:54:52;22.70;;;14.88;;
59145;SDS011;44928;53.074;6.646;2023-02-13T13:57:42;27.08;;;16.58;;
59145;SDS011;44928;53.074;6.646;2023-02-13T14:00:23;22.38;;;14.95;;
59145;SDS011;44928;53.074;6.646;2023-02-13T14:03:18;22.58;;;15.60;;
59145;SDS011;44928;53.074;6.646;2023-02-13T14:05:57;25.98;;;16.92;;
59145;SDS011;44928;53.074;6.646;2023-02-13T14:11:04;24.55;;;15.80;;
59145;SDS011;44928;53.074;6.646;2023-02-13T14:13:36;23.35;;;15.85;;
59145;SDS011;44928;53.074;6.646;2023-02-13T14:16:05;25.15;;;15.18;;
59145;SDS011;44928;53.074;6.646;2023-02-13T14:21:02;24.75;;;15.40;;
59145;SDS011;44928;53.074;6.646;2023-02-13T14:26:10;22.98;;;14.90;;
59145;SDS011;44928;53.074;6.646;2023-02-13T14:28:40;24.73;;;15.88;;
59145;SDS011;44928;53.074;6.646;2023-02-13T14:31:28;23.55;;;16.05;;
59145;SDS011;44928;53.074;6.646;2023-02-13T14:34:01;24.23;;;15.30;;
59145;SDS011;44928;53.074;6.646;2023-02-13T14:36:30;24.33;;;16.40;;
59145;SDS011;44928;53.074;6.646;2023-02-13T14:46:57;23.15;;;15.60;;
59145;SDS011;44928;53.074;6.646;2023-02-13T14:49:29;24.27;;;15.65;;
59145;SDS011;44928;53.074;6.646;2023-02-13T14:51:59;22.95;;;15.68;;
59145;SDS011;44928;53.074;6.646;2023-02-13T14:54:35;24.52;;;16.17;;
59145;SDS011;44928;53.074;6.646;2023-02-13T14:57:18;22.33;;;15.00;;
59145;SDS011;44928;53.074;6.646;2023-02-13T14:59:50;26.58;;;15.05;;
59145;SDS011;44928;53.074;6.646;2023-02-13T15:02:24;23.13;;;16.25;;
59145;SDS011;44928;53.074;6.646;2023-02-13T15:05:02;21.40;;;14.65;;
59145;SDS011;44928;53.074;6.646;2023-02-13T15:07:33;22.60;;;15.52;;
59145;SDS011;44928;53.074;6.646;2023-02-13T15:10:04;21.58;;;14.90;;
59145;SDS011;44928;53.074;6.646;2023-02-13T15:12:36;23.67;;;15.73;;
59145;SDS011;44928;53.074;6.646;2023-02-13T15:15:21;22.08;;;15.20;;
59145;SDS011;44928;53.074;6.646;2023-02-13T15:17:49;25.35;;;15.57;;
59145;SDS011;44928;53.074;6.646;2023-02-13T15:20:24;24.20;;;15.55;;
59145;SDS011;44928;53.074;6.646;2023-02-13T15:22:52;23.05;;;15.95;;
59145;SDS011;44928;53.074;6.646;2023-02-13T15:25:28;23.10;;;16.15;;
59145;SDS011;44928;53.074;6.646;2023-02-13T15:28:01;23.65;;;15.85;;
59145;SDS011;44928;53.074;6.646;2023-02-13T15:30:30;23.92;;;16.65;;
59145;SDS011;44928;53.074;6.646;2023-02-13T15:33:01;24.67;;;16.38;;
59145;SDS011;44928;53.074;6.646;2023-02-13T15:35:38;22.67;;;16.88;;
59145;SDS011;44928;53.074;6.646;2023-02-13T15:40:55;23.05;;;16.00;;
59145;SDS011;44928;53.074;6.646;2023-02-13T15:45:59;25.90;;;17.05;;
59145;SDS011;44928;53.074;6.646;2023-02-13T15:48:42;23.13;;;15.77;;
59145;SDS011;44928;53.074;6.646;2023-02-13T15:51:11;25.50;;;16.52;;
59145;SDS011;44928;53.074;6.646;2023-02-13T15:57:29;23.17;;;16.48;;
59145;SDS011;44928;53.074;6.646;2023-02-13T15:59:59;23.73;;;16.42;;
59145;SDS011;44928;53.074;6.646;2023-02-13T16:02:37;22.92;;;16.05;;
59145;SDS011;44928;53.074;6.646;2023-02-13T16:05:13;23.00;;;16.90;;
59145;SDS011;44928;53.074;6.646;2023-02-13T16:07:54;21.98;;;15.98;;
59145;SDS011;44928;53.074;6.646;2023-02-13T16:12:53;22.50;;;16.65;;
59145;SDS011;44928;53.074;6.646;2023-02-13T16:18:30;27.67;;;15.70;;
59145;SDS011;44928;53.074;6.646;2023-02-13T16:20:56;23.40;;;16.35;;
59145;SDS011;44928;53.074;6.646;2023-02-13T16:23:22;23.15;;;15.75;;
59145;SDS011;44928;53.074;6.646;2023-02-13T16:25:48;21.95;;;15.57;;
59145;SDS011;44928;53.074;6.646;2023-02-13T16:30:49;22.48;;;15.82;;
59145;SDS011;44928;53.074;6.646;2023-02-13T16:38:34;23.20;;;16.02;;
59145;SDS011;44928;53.074;6.646;2023-02-13T16:44:04;22.65;;;16.00;;
59145;SDS011;44928;53.074;6.646;2023-02-13T16:47:22;21.95;;;15.95;;
59145;SDS011;44928;53.074;6.646;2023-02-13T16:49:50;28.30;;;17.35;;
59145;SDS011;44928;53.074;6.646;2023-02-13T16:52:21;32.78;;;19.92;;
59145;SDS011;44928;53.074;6.646;2023-02-13T16:54:57;29.45;;;19.08;;
59145;SDS011;44928;53.074;6.646;2023-02-13T16:59:56;24.25;;;17.00;;
59145;SDS011;44928;53.074;6.646;2023-02-13T17:02:30;27.30;;;19.63;;
59145;SDS011;44928;53.074;6.646;2023-02-13T17:07:34;30.25;;;21.45;;
59145;SDS011;44928;53.074;6.646;2023-02-13T17:12:49;24.20;;;17.42;;
59145;SDS011;44928;53.074;6.646;2023-02-13T17:15:17;22.77;;;16.45;;
59145;SDS011;44928;53.074;6.646;2023-02-13T17:17:45;22.73;;;16.88;;
59145;SDS011;44928;53.074;6.646;2023-02-13T17:20:15;22.20;;;16.65;;
59145;SDS011;44928;53.074;6.646;2023-02-13T17:22:47;24.70;;;16.38;;
59145;SDS011;44928;53.074;6.646;2023-02-13T17:25:15;20.88;;;14.88;;
59145;SDS011;44928;53.074;6.646;2023-02-13T17:27:50;19.85;;;13.65;;
59145;SDS011;44928;53.074;6.646;2023-02-13T17:30:18;19.98;;;13.70;;
59145;SDS011;44928;53.074;6.646;2023-02-13T17:32:56;19.35;;;14.27;;
59145;SDS011;44928;53.074;6.646;2023-02-13T17:35:35;20.55;;;15.05;;
59145;SDS011;44928;53.074;6.646;2023-02-13T17:38:01;20.33;;;15.10;;
59145;SDS011;44928;53.074;6.646;2023-02-13T17:40:27;20.08;;;14.30;;
59145;SDS011;44928;53.074;6.646;2023-02-13T17:42:56;21.67;;;16.42;;
59145;SDS011;44928;53.074;6.646;2023-02-13T17:45:24;20.83;;;14.70;;
59145;SDS011;44928;53.074;6.646;2023-02-13T17:47:52;24.08;;;16.33;;
59145;SDS011;44928;53.074;6.646;2023-02-13T17:50:18;28.13;;;17.05;;
59145;SDS011;44928;53.074;6.646;2023-02-13T17:52:45;22.17;;;15.98;;
59145;SDS011;44928;53.074;6.646;2023-02-13T17:55:17;23.40;;;16.30;;
59145;SDS011;44928;53.074;6.646;2023-02-13T17:57:49;22.90;;;16.40;;
59145;SDS011;44928;53.074;6.646;2023-02-13T18:00:15;22.50;;;16.45;;
59145;SDS011;44928;53.074;6.646;2023-02-13T18:02:44;21.60;;;15.63;;
59145;SDS011;44928;53.074;6.646;2023-02-13T18:05:12;24.67;;;16.52;;
59145;SDS011;44928;53.074;6.646;2023-02-13T18:07:41;22.63;;;16.05;;
59145;SDS011;44928;53.074;6.646;2023-02-13T18:10:12;25.48;;;16.50;;